Time;durP1;ratioP1;P1;durP2;ratioP2;P2;SDS_P1;SDS_P2;PMS_P1;PMS_P2;Temp;Humidity;BMP_temperature;BMP_pressure;BME280_temperature;BME280_humidity;BME280_pressure;Samples;Min_cycle;Max_cycle;Signal;HPM_P1;HPM_P2
2022/12/06 00:01:09;;;;;;;7.22;4.30;;;;;;;7.73;66.10;97408.50;4856921;28;20216;-77
2022/12/06 00:03:35;;;;;;;5.70;3.53;;;;;;;7.66;66.32;97403.44;4857695;29;20192;-77
2022/12/06 00:06:07;;;;;;;5.22;3.05;;;;;;;7.81;66.28;97400.41;4873617;28;20672;-77
2022/12/06 00:08:32;;;;;;;6.55;3.65;;;;;;;7.65;66.15;97405.22;4858280;29;20189;-76
2022/12/06 00:11:12;;;;;;;6.40;4.47;;;;;;;7.76;65.83;97402.88;4877936;28;20154;-76
2022/12/06 00:13:38;;;;;;;5.57;3.60;;;;;;;7.64;66.07;97400.25;4841212;29;20252;-76
2022/12/06 00:16:06;;;;;;;4.75;3.63;;;;;;;7.65;66.43;97401.84;4868408;28;20284;-76
2022/12/06 00:18:32;;;;;;;4.72;3.42;;;;;;;7.67;65.86;97394.63;4873387;28;20287;-76
2022/12/06 00:21:08;;;;;;;6.82;3.63;;;;;;;7.77;65.54;97388.94;4875458;28;20305;-76
2022/12/06 00:23:39;;;;;;;7.20;4.03;;;;;;;7.73;65.58;97390.34;4877290;28;20243;-76
2022/12/06 00:26:06;;;;;;;5.60;3.60;;;;;;;7.68;65.83;97389.22;4881500;28;20177;-76
2022/12/06 00:28:32;;;;;;;5.65;3.13;;;;;;;7.57;65.92;97382.19;4874571;28;20208;-77
2022/12/06 00:30:58;;;;;;;5.43;3.60;;;;;;;7.55;66.25;97391.19;4852075;29;20067;-77
2022/12/06 00:33:24;;;;;;;5.63;3.67;;;;;;;7.52;66.12;97387.22;4878247;28;20294;-77
2022/12/06 00:36:20;;;;;;;6.20;3.85;;;;;;;7.69;65.60;97384.81;4869094;28;20728;-76
2022/12/06 00:38:46;;;;;;;4.45;3.15;;;;;;;7.52;65.83;97384.66;4867045;28;20238;-77
2022/12/06 00:41:13;;;;;;;5.32;3.55;;;;;;;7.50;65.85;97381.50;4875785;28;20683;-76
2022/12/06 00:43:39;;;;;;;4.72;3.05;;;;;;;7.51;65.92;97383.09;4855301;28;20661;-76
2022/12/06 00:46:07;;;;;;;5.97;3.20;;;;;;;7.54;65.68;97384.44;4842401;29;20251;-76
2022/12/06 00:48:32;;;;;;;5.55;3.35;;;;;;;7.50;65.57;97371.13;4867792;28;20714;-76
2022/12/06 00:50:58;;;;;;;5.00;3.58;;;;;;;7.44;65.54;97374.59;4874254;28;20291;-76
2022/12/06 00:53:23;;;;;;;5.63;2.45;;;;;;;7.45;66.06;97373.59;4854538;28;20188;-77
2022/12/06 00:55:49;;;;;;;4.72;3.03;;;;;;;7.47;65.63;97369.78;4876166;28;20205;-76
2022/12/06 00:58:15;;;;;;;4.38;3.00;;;;;;;7.53;65.16;97367.31;4845550;29;20635;-76
2022/12/06 01:00:40;;;;;;;4.43;2.97;;;;;;;7.50;65.29;97377.13;4857201;29;20697;-76
2022/12/06 01:03:06;;;;;;;4.15;2.35;;;;;;;7.44;65.70;97366.84;4880468;28;20059;-77
2022/12/06 01:05:32;;;;;;;4.07;2.90;;;;;;;7.40;64.79;97366.50;4871525;28;20207;-77
2022/12/06 01:07:57;;;;;;;4.43;2.90;;;;;;;7.44;65.20;97372.03;4858505;29;20642;-77
2022/12/06 01:10:23;;;;;;;3.85;2.90;;;;;;;7.42;65.40;97371.41;4874435;28;20207;-77
2022/12/06 01:12:48;;;;;;;3.40;2.90;;;;;;;7.42;65.37;97364.47;4871018;28;20203;-76
2022/12/06 01:15:14;;;;;;;3.53;2.90;;;;;;;7.34;65.30;97366.56;4852714;28;20204;-77
2022/12/06 01:17:39;;;;;;;4.45;2.50;;;;;;;7.30;64.98;97358.44;4861518;29;20246;-76
2022/12/06 01:20:05;;;;;;;3.20;2.22;;;;;;;7.34;65.29;97364.75;4872204;28;20259;-76
2022/12/06 01:22:30;;;;;;;3.00;2.10;;;;;;;7.23;64.64;97375.84;4881393;28;20743;-76
2022/12/06 01:24:56;;;;;;;3.20;1.90;;;;;;;7.17;65.63;97372.31;4859239;29;20367;-76
2022/12/06 01:27:21;;;;;;;3.55;2.22;;;;;;;7.15;65.01;97374.34;4883855;28;20203;-76
2022/12/06 01:29:46;;;;;;;3.00;2.10;;;;;;;7.20;65.36;97373.72;4878229;28;20257;-76
2022/12/06 01:32:12;;;;;;;2.85;1.70;;;;;;;7.21;64.45;97368.28;4874520;28;20286;-77
2022/12/06 01:34:37;;;;;;;2.15;1.55;;;;;;;7.20;65.31;97369.31;4862734;29;20250;-76
2022/12/06 01:37:03;;;;;;;2.88;1.60;;;;;;;7.16;64.75;97365.56;4863314;29;20331;-75
2022/12/06 01:39:29;;;;;;;2.30;1.52;;;;;;;7.10;64.62;97376.78;4873115;28;20195;-76
2022/12/06 01:41:54;;;;;;;2.25;1.50;;;;;;;7.15;64.70;97366.59;4859920;28;20426;-76
2022/12/06 01:44:56;;;;;;;2.65;1.50;;;;;;;7.30;64.76;97367.00;4872744;28;20223;-76
2022/12/06 01:47:27;;;;;;;3.03;1.38;;;;;;;7.17;64.75;97369.75;4832176;29;20179;-76
2022/12/06 01:49:57;;;;;;;3.53;1.20;;;;;;;7.11;65.14;97365.41;4826680;29;20677;-77
2022/12/06 01:52:27;;;;;;;2.05;1.10;;;;;;;7.06;65.05;97365.28;4798341;29;20201;-76
2022/12/06 01:54:53;;;;;;;3.55;1.23;;;;;;;7.08;64.84;97363.28;4835174;29;20395;-77
2022/12/06 01:57:18;;;;;;;1.92;1.38;;;;;;;6.97;65.28;97357.00;4820203;29;20281;-77
2022/12/06 01:59:44;;;;;;;2.35;1.40;;;;;;;6.99;65.62;97354.22;4828221;29;20324;-76
2022/12/06 02:02:10;;;;;;;2.13;1.30;;;;;;;6.99;65.59;97354.22;4812727;29;20295;-76
2022/12/06 02:04:35;;;;;;;2.65;1.50;;;;;;;7.08;65.28;97363.28;4827761;29;20209;-76
2022/12/06 02:07:01;;;;;;;2.22;1.25;;;;;;;7.04;65.22;97352.56;4831774;29;20271;-76
2022/12/06 02:09:27;;;;;;;2.15;1.10;;;;;;;7.05;65.85;97361.13;4832218;29;20342;-77
2022/12/06 02:11:52;;;;;;;1.98;1.30;;;;;;;7.01;65.64;97355.59;4834343;29;20613;-77
2022/12/06 02:14:29;;;;;;;2.15;1.50;;;;;;;7.06;65.79;97357.50;4833585;29;20637;-77
2022/12/06 02:17:00;;;;;;;2.20;1.33;;;;;;;7.10;65.65;97362.03;4830227;29;20171;-77
2022/12/06 02:19:56;;;;;;;2.90;1.92;;;;;;;7.16;65.74;97357.78;4845744;29;20285;-76
2022/12/06 02:22:40;;;;;;;2.35;1.50;;;;;;;6.98;66.23;97363.00;4856796;29;20301;-77
2022/12/06 02:25:14;;;;;;;1.88;1.40;;;;;;;7.14;65.98;97362.41;4864178;29;20215;-77
2022/12/06 02:28:01;;;;;;;3.30;1.63;;;;;;;7.15;65.22;97358.81;4877186;28;20191;-76
2022/12/06 02:30:27;;;;;;;2.78;1.42;;;;;;;6.96;65.77;97362.41;4863792;29;20267;-76
2022/12/06 02:32:57;;;;;;;2.70;1.60;;;;;;;7.08;65.97;97368.47;4880605;28;20705;-76
2022/12/06 02:35:31;;;;;;;2.83;1.70;;;;;;;7.08;65.95;97364.06;4856595;28;20207;-76
2022/12/06 02:38:14;;;;;;;2.58;1.75;;;;;;;6.96;65.86;97354.63;4877052;28;20244;-76
2022/12/06 02:40:43;;;;;;;3.67;1.90;;;;;;;6.92;66.05;97357.69;4854140;29;20643;-77
2022/12/06 02:43:13;;;;;;;1.80;1.33;;;;;;;6.97;66.30;97356.22;4862239;29;20218;-76
2022/12/06 02:45:43;;;;;;;3.08;1.60;;;;;;;7.08;66.36;97356.28;4878483;28;20278;-77
2022/12/06 02:48:09;;;;;;;2.45;1.52;;;;;;;6.94;65.81;97355.66;4877308;28;20168;-77
2022/12/06 02:50:38;;;;;;;2.20;1.30;;;;;;;6.99;66.08;97354.22;4877691;28;20771;-77
2022/12/06 02:53:06;;;;;;;2.30;1.50;;;;;;;7.01;66.24;97349.59;4857879;29;20297;-77
2022/12/06 02:55:32;;;;;;;2.25;1.77;;;;;;;6.95;66.55;97340.91;4879817;28;20184;-77
2022/12/06 02:57:57;;;;;;;2.35;1.70;;;;;;;6.99;65.92;97349.84;4875409;28;20216;-77
2022/12/06 03:00:38;;;;;;;2.40;1.80;;;;;;;7.03;65.88;97343.22;4880712;28;20636;-77
2022/12/06 03:03:25;;;;;;;2.70;1.40;;;;;;;7.05;66.52;97343.00;4846226;29;20248;-77
2022/12/06 03:06:02;;;;;;;2.72;1.70;;;;;;;7.07;66.23;97340.97;4858277;28;20574;-77
2022/12/06 03:08:49;;;;;;;2.78;1.50;;;;;;;7.13;66.13;97346.09;4868725;28;20287;-76
2022/12/06 03:11:14;;;;;;;3.92;1.80;;;;;;;6.92;66.66;97336.97;4876157;28;20211;-76
2022/12/06 03:14:12;;;;;;;3.00;2.08;;;;;;;7.02;66.40;97343.44;4875596;28;20600;-77
2022/12/06 03:16:43;;;;;;;3.20;2.10;;;;;;;6.96;66.23;97339.09;4866501;28;20799;-77
2022/12/06 03:19:20;;;;;;;4.43;2.35;;;;;;;7.06;66.11;97337.59;4880147;28;20262;-77
2022/12/06 03:21:49;;;;;;;3.25;2.03;;;;;;;6.99;66.75;97343.84;4859365;28;20166;-77
2022/12/06 03:24:15;;;;;;;4.78;2.50;;;;;;;6.92;66.36;97329.22;4857891;29;20715;-77
2022/12/06 03:26:42;;;;;;;3.20;2.25;;;;;;;6.98;66.27;97339.69;4875467;28;20791;-77
2022/12/06 03:29:09;;;;;;;4.95;2.85;;;;;;;6.89;66.06;97334.81;4885414;28;20225;-77
2022/12/06 03:31:36;;;;;;;3.50;2.30;;;;;;;6.94;66.57;97334.94;4842329;29;20357;-77
2022/12/06 03:34:08;;;;;;;3.50;2.70;;;;;;;6.94;66.20;97337.53;4860719;29;20311;-77
2022/12/06 03:36:34;;;;;;;4.13;2.45;;;;;;;6.87;66.58;97336.81;4879325;28;20212;-77
2022/12/06 03:39:02;;;;;;;5.00;2.40;;;;;;;6.90;66.44;97344.13;4874762;28;20307;-77
2022/12/06 03:41:31;;;;;;;4.30;2.55;;;;;;;6.87;66.02;97342.00;4875945;28;20649;-77
2022/12/06 03:43:58;;;;;;;4.78;2.92;;;;;;;6.87;66.36;97347.19;4847627;29;20291;-76
2022/12/06 03:46:26;;;;;;;5.28;2.83;;;;;;;6.86;66.90;97337.81;4861216;29;20212;-77
2022/12/06 03:48:56;;;;;;;5.95;2.35;;;;;;;6.93;66.82;97340.34;4859380;29;20196;-77
2022/12/06 03:51:25;;;;;;;3.95;2.50;;;;;;;6.97;66.68;97335.53;4860461;28;20245;-77
2022/12/06 03:53:52;;;;;;;4.63;2.88;;;;;;;6.91;66.65;97332.00;4880777;28;20137;-77
2022/12/06 03:56:19;;;;;;;4.82;3.10;;;;;;;6.93;66.24;97330.78;4859157;28;20204;-76
2022/12/06 03:58:45;;;;;;;5.72;2.80;;;;;;;7.03;66.55;97329.50;4866044;29;20203;-76
2022/12/06 04:01:10;;;;;;;4.85;3.05;;;;;;;6.93;66.36;97325.59;4858384;29;20646;-77
2022/12/06 04:03:36;;;;;;;5.18;3.20;;;;;;;6.94;65.87;97327.19;4876406;28;20357;-77
2022/12/06 04:06:03;;;;;;;4.65;2.83;;;;;;;6.92;66.53;97329.22;4844532;29;20245;-76
2022/12/06 04:08:28;;;;;;;3.85;2.67;;;;;;;6.88;66.42;97322.88;4856953;29;20200;-76
2022/12/06 04:10:53;;;;;;;5.25;2.75;;;;;;;6.80;66.32;97325.75;4872718;28;20612;-76
2022/12/06 04:13:19;;;;;;;3.75;2.65;;;;;;;6.85;66.21;97322.50;4877439;28;20290;-76
2022/12/06 04:15:45;;;;;;;4.47;2.88;;;;;;;6.92;66.21;97320.63;4872022;28;20569;-77
2022/12/06 04:18:12;;;;;;;4.85;2.88;;;;;;;7.04;66.32;97316.31;4879817;28;20199;-76
2022/12/06 04:23:37;;;;;;;4.80;2.88;;;;;;;6.96;66.02;97313.22;4879857;28;20275;-77
2022/12/06 04:26:05;;;;;;;5.13;3.20;;;;;;;6.90;66.10;97314.88;4863860;28;20157;-76
2022/12/06 04:39:39;;;;;;;4.85;3.00;;;;;;;6.89;65.98;97316.69;4861602;29;20645;-76
2022/12/06 04:44:49;;;;;;;5.40;3.17;;;;;;;6.98;66.06;97326.75;4863641;28;20256;-77
2022/12/06 04:47:14;;;;;;;5.15;3.25;;;;;;;7.03;65.39;97319.13;4858596;29;20294;-76
2022/12/06 04:49:40;;;;;;;6.63;3.28;;;;;;;7.01;65.65;97318.53;4876412;28;20282;-76
2022/12/06 04:52:07;;;;;;;4.40;3.17;;;;;;;6.92;65.97;97312.88;4863865;28;20282;-77
2022/12/06 04:54:33;;;;;;;5.50;3.25;;;;;;;6.91;65.92;97312.09;4881098;28;20361;-76
2022/12/06 04:56:58;;;;;;;5.20;3.47;;;;;;;6.88;65.17;97315.09;4881442;28;20292;-76
2022/12/06 04:59:25;;;;;;;4.53;2.85;;;;;;;6.78;66.13;97303.69;4878974;28;20233;-77
2022/12/06 05:01:51;;;;;;;6.10;3.30;;;;;;;6.78;65.94;97307.06;4879077;28;20645;-76
2022/12/06 05:04:16;;;;;;;5.20;3.20;;;;;;;6.73;65.95;97306.91;4877176;28;20211;-76
2022/12/06 05:06:42;;;;;;;4.53;2.97;;;;;;;6.72;66.07;97303.53;4882699;28;20216;-76
2022/12/06 05:09:07;;;;;;;5.30;3.13;;;;;;;6.76;65.91;97298.72;4866027;29;20199;-77
2022/12/06 05:11:32;;;;;;;5.25;3.30;;;;;;;6.70;65.97;97304.75;4877062;28;20254;-76
2022/12/06 05:13:59;;;;;;;4.93;2.75;;;;;;;6.65;66.46;97302.81;4884223;28;20366;-77
2022/12/06 05:16:24;;;;;;;6.00;3.30;;;;;;;6.71;66.07;97301.16;4883808;28;20766;-77
2022/12/06 05:18:50;;;;;;;6.85;3.58;;;;;;;6.73;66.21;97299.16;4886828;28;20278;-77
2022/12/06 05:21:17;;;;;;;6.25;3.67;;;;;;;6.84;65.72;97295.06;4876759;28;20454;-76
2022/12/06 05:23:43;;;;;;;4.45;3.08;;;;;;;6.85;65.82;97302.59;4882792;28;20348;-76
2022/12/06 05:26:14;;;;;;;6.45;3.30;;;;;;;6.86;65.48;97303.41;4879491;28;20184;-77
2022/12/06 05:28:39;;;;;;;5.95;3.35;;;;;;;6.73;66.51;97305.13;4878720;28;20224;-76
2022/12/06 05:31:05;;;;;;;4.88;3.38;;;;;;;6.70;66.13;97297.78;4868360;29;20724;-76
2022/12/06 05:33:30;;;;;;;5.20;3.50;;;;;;;6.72;66.34;97297.59;4874275;28;20192;-77
2022/12/06 05:35:56;;;;;;;6.32;3.50;;;;;;;6.68;65.29;97299.81;4886808;28;20385;-76
2022/12/06 05:38:21;;;;;;;4.78;3.22;;;;;;;6.55;66.05;97298.16;4872094;28;20638;-77
2022/12/06 05:40:47;;;;;;;6.97;3.92;;;;;;;6.55;65.95;97308.50;4880980;28;20296;-76
2022/12/06 05:43:13;;;;;;;5.85;3.55;;;;;;;6.62;65.98;97298.06;4834526;29;20653;-76
2022/12/06 05:45:39;;;;;;;7.28;3.83;;;;;;;6.58;66.28;97296.94;4855696;29;20720;-76
2022/12/06 05:48:05;;;;;;;5.65;3.63;;;;;;;6.69;66.32;97306.56;4861434;29;20264;-77
2022/12/06 05:50:30;;;;;;;6.03;3.50;;;;;;;6.66;66.25;97308.78;4872046;28;20215;-76
2022/12/06 05:52:56;;;;;;;7.97;3.88;;;;;;;6.65;66.31;97307.19;4865131;29;20234;-77
2022/12/06 05:55:22;;;;;;;6.30;3.40;;;;;;;6.64;66.20;97303.03;4878745;28;20200;-76
2022/12/06 05:57:48;;;;;;;5.32;3.70;;;;;;;6.67;66.47;97305.19;4845714;29;20089;-76
2022/12/06 06:00:14;;;;;;;6.15;3.90;;;;;;;6.76;66.18;97309.06;4859347;29;20284;-76
2022/12/06 06:02:40;;;;;;;6.07;4.15;;;;;;;6.73;66.35;97309.50;4820628;29;20270;-76
2022/12/06 06:05:06;;;;;;;6.13;3.83;;;;;;;6.66;65.98;97314.75;4880490;28;20692;-76
2022/12/06 06:07:31;;;;;;;7.43;4.35;;;;;;;6.71;66.19;97309.72;4878186;28;20193;-76
2022/12/06 06:09:57;;;;;;;6.85;3.70;;;;;;;6.68;65.98;97315.34;4865963;28;20658;-76
2022/12/06 06:12:22;;;;;;;7.22;3.65;;;;;;;6.75;65.69;97323.00;4876351;28;20207;-76
2022/12/06 06:14:48;;;;;;;6.75;4.03;;;;;;;6.85;65.77;97333.66;4859568;28;20211;-76
2022/12/06 06:17:13;;;;;;;5.55;3.67;;;;;;;6.72;65.64;97323.47;4876684;28;20383;-77
2022/12/06 06:19:39;;;;;;;7.15;4.20;;;;;;;6.74;65.49;97336.97;4854312;29;20192;-76
2022/12/06 06:22:04;;;;;;;6.28;4.03;;;;;;;6.61;65.80;97327.53;4870876;28;20223;-76
2022/12/06 06:24:38;;;;;;;7.20;3.78;;;;;;;6.68;65.87;97327.47;4881321;28;20638;-76
2022/12/06 06:27:04;;;;;;;7.28;3.85;;;;;;;6.57;66.27;97332.34;4878166;28;20210;-77
2022/12/06 06:29:30;;;;;;;6.97;4.22;;;;;;;6.57;66.30;97332.34;4877922;28;20294;-76
2022/12/06 06:31:55;;;;;;;6.97;3.70;;;;;;;6.58;65.78;97327.97;4868555;28;20196;-76
2022/12/06 06:34:21;;;;;;;7.57;4.90;;;;;;;6.51;65.79;97324.66;4878252;28;20275;-76
2022/12/06 06:36:46;;;;;;;7.72;4.85;;;;;;;6.52;66.08;97326.25;4876844;28;20215;-76
2022/12/06 06:39:12;;;;;;;9.07;4.70;;;;;;;6.48;66.02;97325.09;4873417;28;20650;-76
2022/12/06 06:41:37;;;;;;;8.13;4.70;;;;;;;6.54;65.98;97325.00;4878465;28;20342;-77
2022/12/06 06:44:02;;;;;;;7.72;4.93;;;;;;;6.50;65.94;97325.66;4852363;29;20156;-76
2022/12/06 06:46:28;;;;;;;7.38;4.20;;;;;;;6.49;65.83;97319.69;4874060;28;20211;-76
2022/12/06 06:48:53;;;;;;;6.93;5.07;;;;;;;6.51;66.08;97324.66;4881255;28;20211;-77
2022/12/06 06:51:19;;;;;;;8.55;5.18;;;;;;;6.47;65.90;97321.69;4857655;29;20264;-76
2022/12/06 06:53:44;;;;;;;8.43;5.60;;;;;;;6.47;66.28;97326.88;4866849;29;20207;-76
2022/12/06 06:56:10;;;;;;;8.57;4.93;;;;;;;6.43;65.49;97332.72;4874876;28;20297;-76
2022/12/06 06:58:36;;;;;;;8.20;4.68;;;;;;;6.46;65.69;97330.47;4854137;29;20083;-76
2022/12/06 07:01:04;;;;;;;9.18;5.32;;;;;;;6.54;66.22;97343.13;4847890;29;20176;-76
2022/12/06 07:03:30;;;;;;;7.25;4.43;;;;;;;6.51;65.96;97332.41;4860008;29;20634;-77
2022/12/06 07:05:58;;;;;;;11.35;5.43;;;;;;;6.62;65.98;97338.69;4863039;28;20185;-76
2022/12/06 07:08:24;;;;;;;7.95;5.32;;;;;;;6.60;65.38;97338.09;4842385;28;20270;-77
2022/12/06 07:10:50;;;;;;;8.50;4.50;;;;;;;6.61;65.53;97339.69;4861961;29;20190;-76
2022/12/06 07:13:17;;;;;;;8.48;4.90;;;;;;;6.57;65.92;97334.94;4877784;28;20211;-76
2022/12/06 07:15:42;;;;;;;10.00;5.00;;;;;;;6.53;65.90;97338.19;4865396;29;20233;-76
2022/12/06 07:18:07;;;;;;;8.43;5.15;;;;;;;6.50;65.95;97336.00;4885574;28;20180;-76
2022/12/06 07:20:33;;;;;;;7.57;5.22;;;;;;;6.50;65.82;97339.38;4884890;28;20642;-76
2022/12/06 07:22:58;;;;;;;11.40;6.03;;;;;;;6.50;65.99;97336.78;4853067;29;20165;-76
2022/12/06 07:25:24;;;;;;;9.13;5.05;;;;;;;6.55;65.74;97338.75;4878313;28;20211;-76
2022/12/06 07:27:49;;;;;;;8.45;4.75;;;;;;;6.55;65.80;97339.53;4884785;28;20202;-76
2022/12/06 07:30:14;;;;;;;8.43;4.75;;;;;;;6.52;65.88;97339.97;4882664;28;20161;-76
2022/12/06 07:32:40;;;;;;;8.88;4.97;;;;;;;6.55;66.36;97336.94;4884229;28;20303;-76
2022/12/06 07:35:05;;;;;;;8.20;5.05;;;;;;;6.49;66.17;97335.19;4870755;28;20183;-76
2022/12/06 07:37:31;;;;;;;8.90;5.05;;;;;;;6.57;65.77;97337.53;4868956;28;20540;-76
2022/12/06 07:39:57;;;;;;;9.93;5.32;;;;;;;6.60;65.71;97333.72;4877638;28;20701;-76
2022/12/06 07:45:07;;;;;;;7.43;4.70;;;;;;;6.55;65.44;97336.16;4857490;29;20717;-76
2022/12/06 07:47:40;;;;;;;10.18;5.40;;;;;;;6.64;66.20;97339.25;4884465;28;20586;-76
2022/12/06 07:50:09;;;;;;;7.97;4.38;;;;;;;6.65;65.92;97328.69;4847154;28;20307;-76
2022/12/06 07:52:35;;;;;;;9.30;4.50;;;;;;;6.55;65.56;97328.41;4868300;29;20285;-76
2022/12/06 07:55:03;;;;;;;9.13;5.30;;;;;;;6.50;65.63;97323.88;4883777;28;20270;-76
2022/12/06 07:57:28;;;;;;;7.85;4.35;;;;;;;6.47;66.14;97320.91;4861315;29;20649;-76
2022/12/06 07:59:54;;;;;;;8.52;4.65;;;;;;;6.46;65.65;97314.16;4883302;28;20191;-76
2022/12/06 08:02:22;;;;;;;7.85;4.85;;;;;;;6.52;65.83;97319.25;4883516;28;20203;-76
2022/12/06 08:04:48;;;;;;;11.10;6.20;;;;;;;6.53;66.12;97325.25;4851852;29;20645;-76
2022/12/06 08:07:14;;;;;;;8.77;4.80;;;;;;;6.45;65.87;97325.53;4869527;28;20214;-76
2022/12/06 08:09:39;;;;;;;9.90;5.10;;;;;;;6.57;65.80;97327.16;4883599;28;20357;-76
2022/12/06 08:12:05;;;;;;;9.77;5.22;;;;;;;6.56;65.96;97330.78;4881398;28;20755;-76
2022/12/06 08:14:30;;;;;;;9.95;5.03;;;;;;;6.55;65.98;97324.00;4883517;28;20165;-76
2022/12/06 08:16:56;;;;;;;8.02;4.70;;;;;;;6.59;66.08;97326.97;4883722;28;20657;-76
2022/12/06 08:19:21;;;;;;;8.88;4.68;;;;;;;6.65;65.88;97323.53;4883435;28;20772;-76
2022/12/06 08:21:47;;;;;;;8.25;4.35;;;;;;;6.60;66.24;97319.97;4883196;28;20215;-76
2022/12/06 08:24:13;;;;;;;8.70;5.40;;;;;;;6.57;66.34;97316.81;4883195;28;20757;-76
2022/12/06 08:26:38;;;;;;;8.68;4.53;;;;;;;6.59;66.31;97318.41;4867244;28;20264;-76
2022/12/06 08:29:03;;;;;;;9.52;5.82;;;;;;;6.67;66.47;97323.31;4867758;29;20574;-76
2022/12/06 08:31:29;;;;;;;9.50;5.25;;;;;;;6.75;66.33;97333.34;4883034;28;20368;-76
2022/12/06 08:33:56;;;;;;;9.55;5.57;;;;;;;6.81;65.54;97331.72;4867533;28;20294;-75
2022/12/06 08:36:23;;;;;;;8.02;4.80;;;;;;;6.77;65.20;97328.78;4883047;28;20254;-76
2022/12/06 08:38:50;;;;;;;8.73;5.47;;;;;;;6.73;65.71;97333.59;4880887;28;20643;-76
2022/12/06 08:44:00;;;;;;;7.95;5.03;;;;;;;6.83;65.53;97334.88;4866944;29;20211;-76
2022/12/06 08:46:26;;;;;;;9.45;5.10;;;;;;;6.83;65.11;97335.66;4883164;28;20267;-76
2022/12/06 08:48:52;;;;;;;8.80;4.82;;;;;;;6.78;65.67;97332.94;4883179;28;20211;-76
2022/12/06 08:51:17;;;;;;;9.10;5.28;;;;;;;6.89;65.84;97332.22;4880579;28;20223;-76
2022/12/06 08:53:43;;;;;;;11.20;5.38;;;;;;;6.86;65.44;97335.22;4868882;28;20199;-76
2022/12/06 08:56:08;;;;;;;10.18;5.50;;;;;;;6.91;65.57;97339.78;4876624;28;20168;-76
2022/12/06 08:58:34;;;;;;;8.60;4.68;;;;;;;6.87;65.60;97330.84;4875932;28;20198;-76
2022/12/06 09:00:59;;;;;;;11.20;5.82;;;;;;;6.86;65.50;97331.88;4880087;28;20212;-76
2022/12/06 09:03:25;;;;;;;9.48;5.32;;;;;;;6.91;65.57;97332.78;4863672;28;20211;-76
2022/12/06 09:05:50;;;;;;;8.88;5.38;;;;;;;6.96;65.44;97339.91;4851027;29;20208;-76
2022/12/06 09:08:16;;;;;;;10.15;5.63;;;;;;;6.98;65.77;97342.28;4883237;28;20701;-76
2022/12/06 09:10:42;;;;;;;9.02;5.05;;;;;;;6.93;66.44;97345.53;4868231;28;20190;-76
2022/12/06 09:13:07;;;;;;;9.52;5.45;;;;;;;6.99;65.68;97349.03;4882980;28;20298;-76
2022/12/06 09:15:32;;;;;;;9.88;5.20;;;;;;;7.05;66.18;97353.34;4883017;28;20256;-76
2022/12/06 09:17:58;;;;;;;10.00;6.00;;;;;;;7.11;65.73;97352.47;4882873;28;20203;-76
2022/12/06 09:20:23;;;;;;;8.77;5.10;;;;;;;7.21;65.39;97352.75;4882527;28;20282;-76
2022/12/06 09:22:48;;;;;;;8.70;4.68;;;;;;;7.23;65.07;97344.75;4882974;28;20210;-76
2022/12/06 09:25:14;;;;;;;10.25;5.90;;;;;;;7.24;65.29;97351.53;4881263;28;20291;-76
2022/12/06 09:27:39;;;;;;;8.60;4.88;;;;;;;7.36;64.38;97356.78;4882714;28;20295;-76
2022/12/06 09:30:05;;;;;;;10.75;5.75;;;;;;;7.32;64.91;97352.03;4875955;28;20223;-76
2022/12/06 09:32:31;;;;;;;7.28;5.30;;;;;;;7.23;65.42;97358.53;4882631;28;20274;-76
2022/12/06 09:34:56;;;;;;;7.75;4.80;;;;;;;7.22;65.22;97356.94;4879769;28;20208;-76
2022/12/06 09:37:22;;;;;;;9.15;5.20;;;;;;;7.35;65.34;97357.78;4868061;29;20650;-76
2022/12/06 09:39:51;;;;;;;9.27;4.80;;;;;;;7.39;65.06;97358.94;4878020;28;20648;-76
2022/12/06 09:42:57;;;;;;;8.88;5.05;;;;;;;7.56;64.49;97354.72;4886139;28;20215;-76
2022/12/06 09:45:37;;;;;;;9.75;5.78;;;;;;;7.56;64.41;97359.91;4876053;28;20203;-76
2022/12/06 09:48:15;;;;;;;10.98;5.32;;;;;;;7.36;64.84;97364.53;4886112;28;20657;-76
2022/12/06 09:51:17;;;;;;;8.35;5.40;;;;;;;7.50;65.14;97361.56;4870580;28;20195;-76
2022/12/06 09:54:12;;;;;;;8.77;5.25;;;;;;;7.52;65.18;97368.31;4875566;28;20282;-76
2022/12/06 09:56:54;;;;;;;10.75;5.45;;;;;;;7.52;64.96;97361.31;4862667;29;20843;-76
2022/12/06 09:59:57;;;;;;;6.38;4.75;;;;;;;7.58;64.57;97363.06;4885895;28;20192;-76
2022/12/06 10:02:40;;;;;;;6.72;4.45;;;;;;;7.38;65.27;97357.34;4871918;28;20250;-76
2022/12/06 10:05:20;;;;;;;8.45;5.07;;;;;;;7.51;64.44;97359.75;4872048;28;20203;-76
2022/12/06 10:07:57;;;;;;;10.40;5.40;;;;;;;7.49;65.33;97354.03;4886167;28;20215;-76
2022/12/06 10:10:39;;;;;;;7.55;5.00;;;;;;;7.47;64.59;97356.81;4886031;28;20296;-76
2022/12/06 10:13:07;;;;;;;9.15;5.03;;;;;;;7.31;65.11;97358.19;4886233;28;20175;-76
2022/12/06 10:15:37;;;;;;;7.18;4.35;;;;;;;7.50;65.48;97360.75;4879933;28;20270;-76
2022/12/06 10:18:24;;;;;;;8.25;4.57;;;;;;;7.54;64.84;97351.56;4886085;28;20304;-76
2022/12/06 10:21:15;;;;;;;9.98;4.90;;;;;;;7.56;64.80;97349.53;4886199;28;20191;-76
2022/12/06 10:24:09;;;;;;;6.93;4.75;;;;;;;7.60;64.25;97345.47;4869653;28;20288;-76
2022/12/06 10:26:52;;;;;;;8.68;4.60;;;;;;;7.60;64.67;97349.88;4886286;28;20195;-76
2022/12/06 10:29:51;;;;;;;8.15;4.68;;;;;;;7.65;64.90;97345.59;4862609;28;20198;-76
2022/12/06 10:32:25;;;;;;;7.78;5.28;;;;;;;7.65;65.23;97350.78;4863435;28;20255;-76
2022/12/06 10:34:55;;;;;;;6.57;4.13;;;;;;;7.57;64.91;97348.50;4883692;28;20242;-76
2022/12/06 10:37:51;;;;;;;6.85;3.65;;;;;;;7.66;65.22;97349.78;4864161;29;20164;-76
2022/12/06 10:40:22;;;;;;;7.03;4.20;;;;;;;7.56;63.95;97349.53;4867063;28;20146;-77
2022/12/06 10:42:53;;;;;;;7.47;4.50;;;;;;;7.61;64.53;97348.88;4866607;29;20309;-76
2022/12/06 10:48:20;;;;;;;6.07;3.90;;;;;;;7.61;63.76;97356.66;4881936;28;20641;-77
2022/12/06 10:50:45;;;;;;;;;;;;;;;7.69;63.68;97346.75;4885259;28;20223;-78
2022/12/06 10:53:14;;;;;;;6.03;3.70;;;;;;;7.53;64.32;97349.97;4850724;29;20094;-78
2022/12/06 10:55:45;;;;;;;6.20;3.92;;;;;;;7.63;64.08;97355.41;4887078;28;20649;-78
2022/12/06 10:58:11;;;;;;;5.15;4.00;;;;;;;7.57;64.55;97355.50;4887592;28;20339;-77
2022/12/06 11:01:02;;;;;;;6.30;3.40;;;;;;;7.75;63.73;97359.84;4878955;28;20713;-77
2022/12/06 11:03:39;;;;;;;8.27;4.75;;;;;;;7.79;64.74;97358.38;4877486;28;20716;-77
2022/12/06 11:06:06;;;;;;;7.15;4.35;;;;;;;7.65;64.61;97353.38;4869732;28;20681;-77
2022/12/06 11:08:53;;;;;;;5.88;3.85;;;;;;;7.77;63.82;97355.22;4888230;28;20089;-75
2022/12/06 11:11:26;;;;;;;6.65;4.00;;;;;;;7.80;64.17;97352.19;4881936;28;20362;-85
2022/12/06 11:14:03;;;;;;;5.70;3.60;;;;;;;7.93;64.60;97354.56;4866937;29;20306;-77
2022/12/06 11:16:53;;;;;;;5.35;3.35;;;;;;;7.97;63.86;97355.72;4841365;28;20183;-77
2022/12/06 11:19:33;;;;;;;5.43;3.42;;;;;;;7.90;62.79;97356.81;4869517;29;20215;-77
2022/12/06 11:22:33;;;;;;;4.43;2.95;;;;;;;7.90;62.65;97351.63;4883714;28;20259;-75
2022/12/06 11:25:23;;;;;;;4.28;3.15;;;;;;;7.73;63.74;97352.28;4884403;28;20234;-77
2022/12/06 11:27:55;;;;;;;4.53;3.05;;;;;;;7.81;64.04;97359.75;4878025;28;20282;-77
2022/12/06 11:30:20;;;;;;;5.53;3.20;;;;;;;7.79;63.75;97356.56;4884264;28;20649;-77
2022/12/06 11:32:49;;;;;;;4.35;3.08;;;;;;;7.84;64.16;97345.53;4884729;28;20273;-77
2022/12/06 11:35:18;;;;;;;3.40;2.95;;;;;;;7.88;62.75;97347.47;4878269;28;20259;-77
2022/12/06 11:37:44;;;;;;;4.43;3.05;;;;;;;7.82;62.26;97348.34;4884747;28;20246;-77
2022/12/06 11:40:25;;;;;;;4.85;2.85;;;;;;;7.97;61.85;97340.16;4881029;28;20370;-77
2022/12/06 11:42:51;;;;;;;3.83;2.92;;;;;;;7.78;62.64;97338.66;4868167;29;20602;-77
2022/12/06 11:45:33;;;;;;;5.53;3.42;;;;;;;7.98;62.72;97335.75;4879945;28;20195;-77
2022/12/06 11:48:03;;;;;;;4.85;2.95;;;;;;;7.78;63.28;97338.66;4852822;28;20647;-77
2022/12/06 11:50:29;;;;;;;3.78;2.90;;;;;;;7.88;62.98;97336.31;4874549;28;20192;-77
2022/12/06 11:53:02;;;;;;;3.83;3.10;;;;;;;7.94;63.05;97338.03;4884282;28;20271;-77
2022/12/06 11:55:34;;;;;;;5.07;3.13;;;;;;;7.94;62.55;97335.44;4878387;28;20628;-77
2022/12/06 11:58:05;;;;;;;4.78;3.28;;;;;;;7.83;64.02;97333.59;4885008;28;20339;-77
2022/12/06 12:00:31;;;;;;;7.03;3.78;;;;;;;7.77;63.37;97339.69;4884669;28;20713;-77
2022/12/06 12:02:56;;;;;;;4.20;3.08;;;;;;;7.82;63.20;97332.03;4879011;28;20254;-77
2022/12/06 12:05:33;;;;;;;5.53;3.20;;;;;;;7.79;64.14;97328.06;4871088;28;20211;-77
2022/12/06 12:08:04;;;;;;;5.28;3.58;;;;;;;7.87;63.91;97329.56;4854074;29;20207;-77
2022/12/06 12:10:38;;;;;;;6.18;3.63;;;;;;;8.06;64.04;97335.44;4884440;28;20200;-77
2022/12/06 12:15:55;;;;;;;5.35;3.28;;;;;;;7.80;63.73;97331.47;4871069;28;20173;-77
2022/12/06 12:18:28;;;;;;;4.93;3.45;;;;;;;7.85;63.91;97329.00;4884777;28;20195;-77
2022/12/06 12:20:55;;;;;;;4.65;3.33;;;;;;;7.93;64.23;97323.47;4875971;28;20219;-77